sensor_id;sensor_type;location;lat;lon;timestamp;temperature;humidity
8633;DHT22;4354;49.832;10.746;2023-02-02T00:01:00;3.00;99.90
8633;DHT22;4354;49.832;10.746;2023-02-02T00:03:27;3.00;99.90
8633;DHT22;4354;49.832;10.746;2023-02-02T00:05:55;3.00;99.90
8633;DHT22;4354;49.832;10.746;2023-02-02T00:08:23;2.80;99.90
8633;DHT22;4354;49.832;10.746;2023-02-02T00:10:49;2.70;99.90
8633;DHT22;4354;49.832;10.746;2023-02-02T00:13:16;2.50;99.90
8633;DHT22;4354;49.832;10.746;2023-02-02T00:15:43;2.40;99.90
8633;DHT22;4354;49.832;10.746;2023-02-02T00:18:10;2.20;99.90
8633;DHT22;4354;49.832;10.746;2023-02-02T00:20:37;2.10;99.90
8633;DHT22;4354;49.832;10.746;2023-02-02T00:23:04;1.90;99.90
8633;DHT22;4354;49.832;10.746;2023-02-02T00:25:31;1.80;99.90
8633;DHT22;4354;49.832;10.746;2023-02-02T00:27:58;1.70;99.90
8633;DHT22;4354;49.832;10.746;2023-02-02T00:30:25;1.70;99.90
8633;DHT22;4354;49.832;10.746;2023-02-02T00:32:51;1.70;99.90
8633;DHT22;4354;49.832;10.746;2023-02-02T00:35:18;1.70;99.90
8633;DHT22;4354;49.832;10.746;2023-02-02T00:37:46;1.70;99.90
8633;DHT22;4354;49.832;10.746;2023-02-02T00:40:13;1.70;99.90
8633;DHT22;4354;49.832;10.746;2023-02-02T00:42:39;1.70;99.90
8633;DHT22;4354;49.832;10.746;2023-02-02T00:45:08;1.70;99.90
8633;DHT22;4354;49.832;10.746;2023-02-02T00:47:47;1.70;99.90
8633;DHT22;4354;49.832;10.746;2023-02-02T00:50:17;1.70;99.90
8633;DHT22;4354;49.832;10.746;2023-02-02T00:52:47;1.70;99.90
8633;DHT22;4354;49.832;10.746;2023-02-02T00:55:14;1.70;99.90
8633;DHT22;4354;49.832;10.746;2023-02-02T00:57:41;1.70;99.90
8633;DHT22;4354;49.832;10.746;2023-02-02T01:00:14;1.70;99.90
8633;DHT22;4354;49.832;10.746;2023-02-02T01:02:42;1.70;99.90
8633;DHT22;4354;49.832;10.746;2023-02-02T01:05:10;1.60;99.90
8633;DHT22;4354;49.832;10.746;2023-02-02T01:07:38;1.60;99.90
8633;DHT22;4354;49.832;10.746;2023-02-02T01:10:07;1.60;99.90
8633;DHT22;4354;49.832;10.746;2023-02-02T01:12:34;1.60;99.90
8633;DHT22;4354;49.832;10.746;2023-02-02T01:15:01;1.70;99.90
8633;DHT22;4354;49.832;10.746;2023-02-02T01:17:28;1.60;99.90
8633;DHT22;4354;49.832;10.746;2023-02-02T01:19:55;1.60;99.90
8633;DHT22;4354;49.832;10.746;2023-02-02T01:22:22;1.60;99.90
8633;DHT22;4354;49.832;10.746;2023-02-02T01:24:50;1.60;99.90
8633;DHT22;4354;49.832;10.746;2023-02-02T01:27:17;1.50;99.90
8633;DHT22;4354;49.832;10.746;2023-02-02T01:29:44;1.50;99.90
8633;DHT22;4354;49.832;10.746;2023-02-02T01:32:11;1.50;99.90
8633;DHT22;4354;49.832;10.746;2023-02-02T01:34:38;1.50;99.90
8633;DHT22;4354;49.832;10.746;2023-02-02T01:37:09;1.50;99.90
8633;DHT22;4354;49.832;10.746;2023-02-02T01:39:36;1.50;99.90
8633;DHT22;4354;49.832;10.746;2023-02-02T01:42:10;1.50;99.90
8633;DHT22;4354;49.832;10.746;2023-02-02T01:47:32;1.50;99.90
8633;DHT22;4354;49.832;10.746;2023-02-02T01:50:00;1.40;99.90
8633;DHT22;4354;49.832;10.746;2023-02-02T01:52:29;1.50;99.90
8633;DHT22;4354;49.832;10.746;2023-02-02T01:55:04;1.50;99.90
8633;DHT22;4354;49.832;10.746;2023-02-02T01:57:47;1.50;99.90
8633;DHT22;4354;49.832;10.746;2023-02-02T02:00:15;1.50;99.90
8633;DHT22;4354;49.832;10.746;2023-02-02T02:02:46;1.50;99.90
8633;DHT22;4354;49.832;10.746;2023-02-02T02:05:17;1.60;99.90
8633;DHT22;4354;49.832;10.746;2023-02-02T02:07:49;1.50;99.90
8633;DHT22;4354;49.832;10.746;2023-02-02T02:10:17;1.60;99.90
8633;DHT22;4354;49.832;10.746;2023-02-02T02:12:46;1.60;99.90
8633;DHT22;4354;49.832;10.746;2023-02-02T02:15:13;1.60;99.90
8633;DHT22;4354;49.832;10.746;2023-02-02T02:18:35;1.60;99.90
8633;DHT22;4354;49.832;10.746;2023-02-02T02:21:37;1.50;99.90
8633;DHT22;4354;49.832;10.746;2023-02-02T02:33:48;1.50;99.90
8633;DHT22;4354;49.832;10.746;2023-02-02T02:36:36;1.50;99.90
8633;DHT22;4354;49.832;10.746;2023-02-02T02:39:33;1.50;99.90
8633;DHT22;4354;49.832;10.746;2023-02-02T02:42:06;1.60;99.90
8633;DHT22;4354;49.832;10.746;2023-02-02T02:44:35;1.60;99.90
8633;DHT22;4354;49.832;10.746;2023-02-02T02:47:02;1.60;99.90
8633;DHT22;4354;49.832;10.746;2023-02-02T02:49:29;1.60;99.90
8633;DHT22;4354;49.832;10.746;2023-02-02T02:51:56;1.60;99.90
8633;DHT22;4354;49.832;10.746;2023-02-02T03:02:55;1.70;99.90
8633;DHT22;4354;49.832;10.746;2023-02-02T03:08:54;1.70;99.90
8633;DHT22;4354;49.832;10.746;2023-02-02T03:11:01;1.70;99.90
8633;DHT22;4354;49.832;10.746;2023-02-02T03:13:30;1.80;99.90
8633;DHT22;4354;49.832;10.746;2023-02-02T03:15:57;1.80;99.90
8633;DHT22;4354;49.832;10.746;2023-02-02T03:18:27;1.80;99.90
8633;DHT22;4354;49.832;10.746;2023-02-02T03:20:54;1.80;99.90
8633;DHT22;4354;49.832;10.746;2023-02-02T03:23:22;1.80;99.90
8633;DHT22;4354;49.832;10.746;2023-02-02T03:25:49;1.80;99.90
8633;DHT22;4354;49.832;10.746;2023-02-02T03:28:17;1.90;99.90
8633;DHT22;4354;49.832;10.746;2023-02-02T03:30:45;1.90;99.90
8633;DHT22;4354;49.832;10.746;2023-02-02T03:33:13;1.90;99.90
8633;DHT22;4354;49.832;10.746;2023-02-02T03:35:40;2.00;99.90
8633;DHT22;4354;49.832;10.746;2023-02-02T03:38:07;1.90;99.90
8633;DHT22;4354;49.832;10.746;2023-02-02T03:40:34;1.90;99.90
8633;DHT22;4354;49.832;10.746;2023-02-02T03:43:01;2.00;99.90
8633;DHT22;4354;49.832;10.746;2023-02-02T03:45:29;2.00;99.90
8633;DHT22;4354;49.832;10.746;2023-02-02T03:47:56;2.00;99.90
8633;DHT22;4354;49.832;10.746;2023-02-02T03:50:23;2.00;99.90
8633;DHT22;4354;49.832;10.746;2023-02-02T03:52:50;2.00;99.90
8633;DHT22;4354;49.832;10.746;2023-02-02T03:55:17;2.00;99.90
8633;DHT22;4354;49.832;10.746;2023-02-02T03:57:44;2.00;99.90
8633;DHT22;4354;49.832;10.746;2023-02-02T04:00:11;2.00;99.90
8633;DHT22;4354;49.832;10.746;2023-02-02T04:02:38;2.10;99.90
8633;DHT22;4354;49.832;10.746;2023-02-02T04:05:05;2.10;99.90
8633;DHT22;4354;49.832;10.746;2023-02-02T04:07:32;2.10;99.90
8633;DHT22;4354;49.832;10.746;2023-02-02T04:09:59;2.10;99.90
8633;DHT22;4354;49.832;10.746;2023-02-02T04:12:25;2.10;99.90
8633;DHT22;4354;49.832;10.746;2023-02-02T04:14:52;2.20;99.90
8633;DHT22;4354;49.832;10.746;2023-02-02T04:17:19;2.10;99.90
8633;DHT22;4354;49.832;10.746;2023-02-02T04:19:45;2.20;99.90
8633;DHT22;4354;49.832;10.746;2023-02-02T04:22:12;2.20;99.90
8633;DHT22;4354;49.832;10.746;2023-02-02T04:24:39;2.20;99.90
8633;DHT22;4354;49.832;10.746;2023-02-02T04:27:06;2.20;99.90
8633;DHT22;4354;49.832;10.746;2023-02-02T04:29:32;2.20;99.90
8633;DHT22;4354;49.832;10.746;2023-02-02T04:31:59;2.10;99.90
8633;DHT22;4354;49.832;10.746;2023-02-02T04:34:26;2.20;99.90
8633;DHT22;4354;49.832;10.746;2023-02-02T04:36:53;2.20;99.90
8633;DHT22;4354;49.832;10.746;2023-02-02T04:39:21;2.10;99.90
8633;DHT22;4354;49.832;10.746;2023-02-02T04:41:48;2.20;99.90
8633;DHT22;4354;49.832;10.746;2023-02-02T04:44:15;2.20;99.90
8633;DHT22;4354;49.832;10.746;2023-02-02T04:46:43;2.10;99.90
8633;DHT22;4354;49.832;10.746;2023-02-02T04:49:10;2.20;99.90
8633;DHT22;4354;49.832;10.746;2023-02-02T04:51:38;2.10;99.90
8633;DHT22;4354;49.832;10.746;2023-02-02T04:54:06;2.10;99.90
8633;DHT22;4354;49.832;10.746;2023-02-02T04:56:33;2.10;99.90
8633;DHT22;4354;49.832;10.746;2023-02-02T04:59:01;2.10;99.90
8633;DHT22;4354;49.832;10.746;2023-02-02T05:01:27;2.10;99.90
8633;DHT22;4354;49.832;10.746;2023-02-02T05:03:56;2.10;99.90
8633;DHT22;4354;49.832;10.746;2023-02-02T05:06:23;2.10;99.90
8633;DHT22;4354;49.832;10.746;2023-02-02T05:08:50;2.00;99.90
8633;DHT22;4354;49.832;10.746;2023-02-02T05:11:19;2.00;99.90
8633;DHT22;4354;49.832;10.746;2023-02-02T05:13:48;1.90;99.90
8633;DHT22;4354;49.832;10.746;2023-02-02T05:16:16;1.90;99.90
8633;DHT22;4354;49.832;10.746;2023-02-02T05:18:51;1.90;99.90
8633;DHT22;4354;49.832;10.746;2023-02-02T05:21:18;1.90;99.90
8633;DHT22;4354;49.832;10.746;2023-02-02T05:23:46;1.90;99.90
8633;DHT22;4354;49.832;10.746;2023-02-02T05:26:20;1.90;99.90
8633;DHT22;4354;49.832;10.746;2023-02-02T05:28:47;1.90;99.90
8633;DHT22;4354;49.832;10.746;2023-02-02T05:31:14;2.00;99.90
8633;DHT22;4354;49.832;10.746;2023-02-02T05:33:41;2.00;99.90
8633;DHT22;4354;49.832;10.746;2023-02-02T05:36:08;2.10;99.90
8633;DHT22;4354;49.832;10.746;2023-02-02T05:38:35;2.10;99.90
8633;DHT22;4354;49.832;10.746;2023-02-02T05:41:02;2.30;99.90
8633;DHT22;4354;49.832;10.746;2023-02-02T05:43:30;2.30;99.90
8633;DHT22;4354;49.832;10.746;2023-02-02T05:45:57;2.40;99.90
8633;DHT22;4354;49.832;10.746;2023-02-02T05:48:25;2.40;99.90
8633;DHT22;4354;49.832;10.746;2023-02-02T05:51:04;2.50;99.90
8633;DHT22;4354;49.832;10.746;2023-02-02T05:53:32;2.40;99.90
8633;DHT22;4354;49.832;10.746;2023-02-02T05:55:59;2.40;99.90
8633;DHT22;4354;49.832;10.746;2023-02-02T05:58:26;2.30;99.90
8633;DHT22;4354;49.832;10.746;2023-02-02T06:00:54;2.30;99.90
8633;DHT22;4354;49.832;10.746;2023-02-02T06:03:22;2.20;99.90
8633;DHT22;4354;49.832;10.746;2023-02-02T06:05:49;2.20;99.90
8633;DHT22;4354;49.832;10.746;2023-02-02T06:08:16;2.20;99.90
8633;DHT22;4354;49.832;10.746;2023-02-02T06:10:43;2.30;99.90
8633;DHT22;4354;49.832;10.746;2023-02-02T06:13:10;2.20;99.90
8633;DHT22;4354;49.832;10.746;2023-02-02T06:15:39;2.30;99.90
8633;DHT22;4354;49.832;10.746;2023-02-02T06:18:08;2.30;99.90
8633;DHT22;4354;49.832;10.746;2023-02-02T06:20:35;2.30;99.90
8633;DHT22;4354;49.832;10.746;2023-02-02T06:23:03;2.30;99.90
8633;DHT22;4354;49.832;10.746;2023-02-02T06:25:30;2.30;99.90
8633;DHT22;4354;49.832;10.746;2023-02-02T06:27:57;2.30;99.90
8633;DHT22;4354;49.832;10.746;2023-02-02T06:30:25;2.30;99.90
8633;DHT22;4354;49.832;10.746;2023-02-02T06:32:52;2.20;99.90
8633;DHT22;4354;49.832;10.746;2023-02-02T06:35:19;2.30;99.90
8633;DHT22;4354;49.832;10.746;2023-02-02T06:37:46;2.30;99.90
8633;DHT22;4354;49.832;10.746;2023-02-02T06:40:12;2.30;99.90
8633;DHT22;4354;49.832;10.746;2023-02-02T06:42:42;2.30;99.90
8633;DHT22;4354;49.832;10.746;2023-02-02T06:45:09;2.30;99.90
8633;DHT22;4354;49.832;10.746;2023-02-02T06:47:36;2.30;99.90
8633;DHT22;4354;49.832;10.746;2023-02-02T06:50:04;2.30;99.90
8633;DHT22;4354;49.832;10.746;2023-02-02T06:52:30;2.30;99.90
8633;DHT22;4354;49.832;10.746;2023-02-02T06:54:57;2.30;99.90
8633;DHT22;4354;49.832;10.746;2023-02-02T06:57:24;2.40;99.90
8633;DHT22;4354;49.832;10.746;2023-02-02T06:59:51;2.50;99.90
8633;DHT22;4354;49.832;10.746;2023-02-02T07:02:17;2.50;99.90
8633;DHT22;4354;49.832;10.746;2023-02-02T07:04:44;2.60;99.90
8633;DHT22;4354;49.832;10.746;2023-02-02T07:07:11;2.70;99.90
8633;DHT22;4354;49.832;10.746;2023-02-02T07:09:38;2.70;99.90
8633;DHT22;4354;49.832;10.746;2023-02-02T07:12:05;2.70;99.90
8633;DHT22;4354;49.832;10.746;2023-02-02T07:14:32;2.80;99.90
8633;DHT22;4354;49.832;10.746;2023-02-02T07:16:58;2.80;99.90
8633;DHT22;4354;49.832;10.746;2023-02-02T07:19:25;2.70;99.90
8633;DHT22;4354;49.832;10.746;2023-02-02T07:21:52;2.70;99.90
8633;DHT22;4354;49.832;10.746;2023-02-02T07:24:18;2.70;99.90
8633;DHT22;4354;49.832;10.746;2023-02-02T07:26:45;2.70;99.90
8633;DHT22;4354;49.832;10.746;2023-02-02T07:29:13;2.70;99.90
8633;DHT22;4354;49.832;10.746;2023-02-02T07:31:40;2.70;99.90
8633;DHT22;4354;49.832;10.746;2023-02-02T07:34:07;2.80;99.90
8633;DHT22;4354;49.832;10.746;2023-02-02T07:36:34;2.70;99.90
8633;DHT22;4354;49.832;10.746;2023-02-02T07:39:01;2.80;99.90
8633;DHT22;4354;49.832;10.746;2023-02-02T07:41:30;2.80;99.90
8633;DHT22;4354;49.832;10.746;2023-02-02T07:43:57;2.80;99.90
8633;DHT22;4354;49.832;10.746;2023-02-02T07:46:24;2.80;99.90
8633;DHT22;4354;49.832;10.746;2023-02-02T07:48:53;2.80;99.90
8633;DHT22;4354;49.832;10.746;2023-02-02T07:51:21;2.80;99.90
8633;DHT22;4354;49.832;10.746;2023-02-02T07:53:50;2.80;99.90
8633;DHT22;4354;49.832;10.746;2023-02-02T07:56:26;2.80;99.90
8633;DHT22;4354;49.832;10.746;2023-02-02T07:58:55;2.80;99.90
8633;DHT22;4354;49.832;10.746;2023-02-02T08:01:23;2.80;99.90
8633;DHT22;4354;49.832;10.746;2023-02-02T08:03:53;2.80;99.90
8633;DHT22;4354;49.832;10.746;2023-02-02T08:06:25;2.80;99.90
8633;DHT22;4354;49.832;10.746;2023-02-02T08:08:53;2.80;99.90
8633;DHT22;4354;49.832;10.746;2023-02-02T08:11:22;2.80;99.90
8633;DHT22;4354;49.832;10.746;2023-02-02T08:13:54;2.80;99.90
8633;DHT22;4354;49.832;10.746;2023-02-02T08:16:21;2.80;99.90
8633;DHT22;4354;49.832;10.746;2023-02-02T08:18:48;2.80;99.90
8633;DHT22;4354;49.832;10.746;2023-02-02T08:21:16;2.80;99.90
8633;DHT22;4354;49.832;10.746;2023-02-02T08:23:44;2.90;99.90
8633;DHT22;4354;49.832;10.746;2023-02-02T08:26:17;2.80;99.90
8633;DHT22;4354;49.832;10.746;2023-02-02T08:28:47;2.80;99.90
8633;DHT22;4354;49.832;10.746;2023-02-02T08:31:21;2.90;99.90
8633;DHT22;4354;49.832;10.746;2023-02-02T08:33:48;2.80;99.90
8633;DHT22;4354;49.832;10.746;2023-02-02T08:36:17;2.90;99.90
8633;DHT22;4354;49.832;10.746;2023-02-02T08:38:45;2.90;99.90
8633;DHT22;4354;49.832;10.746;2023-02-02T08:41:14;2.90;99.90
8633;DHT22;4354;49.832;10.746;2023-02-02T08:43:41;2.90;99.90
8633;DHT22;4354;49.832;10.746;2023-02-02T08:46:10;3.00;99.90
8633;DHT22;4354;49.832;10.746;2023-02-02T08:48:38;3.00;99.90
8633;DHT22;4354;49.832;10.746;2023-02-02T08:51:06;3.00;99.90
8633;DHT22;4354;49.832;10.746;2023-02-02T08:53:33;3.00;99.90
8633;DHT22;4354;49.832;10.746;2023-02-02T08:56:02;3.00;99.90
8633;DHT22;4354;49.832;10.746;2023-02-02T08:58:30;3.00;99.90
8633;DHT22;4354;49.832;10.746;2023-02-02T09:01:18;3.00;99.90
8633;DHT22;4354;49.832;10.746;2023-02-02T09:03:45;3.00;99.90
8633;DHT22;4354;49.832;10.746;2023-02-02T09:06:15;3.10;99.90
8633;DHT22;4354;49.832;10.746;2023-02-02T09:08:42;3.10;99.90
8633;DHT22;4354;49.832;10.746;2023-02-02T09:11:12;3.10;99.90
8633;DHT22;4354;49.832;10.746;2023-02-02T09:13:40;3.10;99.90
8633;DHT22;4354;49.832;10.746;2023-02-02T09:16:09;3.20;99.90
8633;DHT22;4354;49.832;10.746;2023-02-02T09:18:36;3.20;99.90
8633;DHT22;4354;49.832;10.746;2023-02-02T09:21:07;3.20;99.90
8633;DHT22;4354;49.832;10.746;2023-02-02T09:23:36;3.10;99.90
8633;DHT22;4354;49.832;10.746;2023-02-02T09:26:32;3.20;99.90
8633;DHT22;4354;49.832;10.746;2023-02-02T09:29:01;3.20;99.90
8633;DHT22;4354;49.832;10.746;2023-02-02T09:31:30;3.20;99.90
8633;DHT22;4354;49.832;10.746;2023-02-02T09:34:02;3.20;99.90
8633;DHT22;4354;49.832;10.746;2023-02-02T09:36:30;3.30;99.90
8633;DHT22;4354;49.832;10.746;2023-02-02T09:38:57;3.20;99.90
8633;DHT22;4354;49.832;10.746;2023-02-02T09:52:47;3.30;99.90
8633;DHT22;4354;49.832;10.746;2023-02-02T09:55:32;3.30;99.90
8633;DHT22;4354;49.832;10.746;2023-02-02T10:00:45;3.30;99.90
8633;DHT22;4354;49.832;10.746;2023-02-02T10:03:18;3.30;99.90
8633;DHT22;4354;49.832;10.746;2023-02-02T10:05:54;3.40;99.90
8633;DHT22;4354;49.832;10.746;2023-02-02T10:08:34;3.40;99.90
8633;DHT22;4354;49.832;10.746;2023-02-02T10:11:26;3.40;99.90
8633;DHT22;4354;49.832;10.746;2023-02-02T10:13:57;3.40;99.90
8633;DHT22;4354;49.832;10.746;2023-02-02T10:16:25;3.40;99.90
8633;DHT22;4354;49.832;10.746;2023-02-02T10:18:58;3.50;99.90
8633;DHT22;4354;49.832;10.746;2023-02-02T10:24:22;3.50;99.90
8633;DHT22;4354;49.832;10.746;2023-02-02T10:26:59;3.60;99.90
8633;DHT22;4354;49.832;10.746;2023-02-02T10:32:22;3.60;99.90
8633;DHT22;4354;49.832;10.746;2023-02-02T10:37:46;3.60;99.90
8633;DHT22;4354;49.832;10.746;2023-02-02T10:40:38;3.60;99.90
8633;DHT22;4354;49.832;10.746;2023-02-02T10:43:28;3.60;99.90
8633;DHT22;4354;49.832;10.746;2023-02-02T10:46:23;3.60;99.90
8633;DHT22;4354;49.832;10.746;2023-02-02T10:51:39;3.50;99.90
8633;DHT22;4354;49.832;10.746;2023-02-02T10:56:58;3.60;99.90
8633;DHT22;4354;49.832;10.746;2023-02-02T10:59:35;3.60;99.90
8633;DHT22;4354;49.832;10.746;2023-02-02T11:02:10;3.50;99.90
8633;DHT22;4354;49.832;10.746;2023-02-02T11:04:46;3.50;99.90
8633;DHT22;4354;49.832;10.746;2023-02-02T11:07:31;3.50;99.90
8633;DHT22;4354;49.832;10.746;2023-02-02T11:09:58;3.50;99.90
8633;DHT22;4354;49.832;10.746;2023-02-02T11:12:32;3.50;99.90
8633;DHT22;4354;49.832;10.746;2023-02-02T11:15:06;3.60;99.90
8633;DHT22;4354;49.832;10.746;2023-02-02T11:17:34;3.60;99.90
8633;DHT22;4354;49.832;10.746;2023-02-02T11:20:01;3.70;99.90
8633;DHT22;4354;49.832;10.746;2023-02-02T11:22:46;3.60;99.90
8633;DHT22;4354;49.832;10.746;2023-02-02T11:25:35;3.70;99.90
8633;DHT22;4354;49.832;10.746;2023-02-02T11:28:11;3.70;99.90
8633;DHT22;4354;49.832;10.746;2023-02-02T11:30:49;3.80;99.90
8633;DHT22;4354;49.832;10.746;2023-02-02T11:33:25;3.90;99.90
8633;DHT22;4354;49.832;10.746;2023-02-02T11:35:56;4.00;99.90
8633;DHT22;4354;49.832;10.746;2023-02-02T11:38:24;4.50;99.90
8633;DHT22;4354;49.832;10.746;2023-02-02T11:41:01;4.80;99.90
8633;DHT22;4354;49.832;10.746;2023-02-02T11:43:55;5.10;99.90
8633;DHT22;4354;49.832;10.746;2023-02-02T11:46:26;5.30;99.90
8633;DHT22;4354;49.832;10.746;2023-02-02T11:49:06;5.40;99.90
8633;DHT22;4354;49.832;10.746;2023-02-02T11:51:38;5.50;99.90
8633;DHT22;4354;49.832;10.746;2023-02-02T11:56:38;5.70;99.90
8633;DHT22;4354;49.832;10.746;2023-02-02T11:59:32;5.80;99.90
8633;DHT22;4354;49.832;10.746;2023-02-02T12:02:22;5.80;99.90
8633;DHT22;4354;49.832;10.746;2023-02-02T12:05:37;5.90;99.90
8633;DHT22;4354;49.832;10.746;2023-02-02T12:07:41;5.90;99.90
8633;DHT22;4354;49.832;10.746;2023-02-02T12:13:18;6.00;99.90
8633;DHT22;4354;49.832;10.746;2023-02-02T12:21:03;6.00;99.90
8633;DHT22;4354;49.832;10.746;2023-02-02T12:26:25;6.10;99.90
8633;DHT22;4354;49.832;10.746;2023-02-02T12:29:14;6.10;99.90
8633;DHT22;4354;49.832;10.746;2023-02-02T12:31:59;6.10;99.90
8633;DHT22;4354;49.832;10.746;2023-02-02T12:34:55;6.00;99.90
8633;DHT22;4354;49.832;10.746;2023-02-02T12:37:42;6.10;99.90
8633;DHT22;4354;49.832;10.746;2023-02-02T12:43:19;6.00;99.90
8633;DHT22;4354;49.832;10.746;2023-02-02T12:46:28;6.00;99.90
8633;DHT22;4354;49.832;10.746;2023-02-02T12:49:21;6.00;99.90
8633;DHT22;4354;49.832;10.746;2023-02-02T12:52:14;6.00;99.90
8633;DHT22;4354;49.832;10.746;2023-02-02T12:57:55;6.00;99.90
8633;DHT22;4354;49.832;10.746;2023-02-02T13:11:54;5.20;99.90
8633;DHT22;4354;49.832;10.746;2023-02-02T13:14:27;4.90;99.90
8633;DHT22;4354;49.832;10.746;2023-02-02T13:16:59;4.80;99.90
8633;DHT22;4354;49.832;10.746;2023-02-02T13:19:40;4.60;99.90
8633;DHT22;4354;49.832;10.746;2023-02-02T13:22:16;4.60;99.90
8633;DHT22;4354;49.832;10.746;2023-02-02T13:24:47;4.50;99.90
8633;DHT22;4354;49.832;10.746;2023-02-02T13:27:18;4.40;99.90
8633;DHT22;4354;49.832;10.746;2023-02-02T13:30:13;4.40;99.90
8633;DHT22;4354;49.832;10.746;2023-02-02T13:32:45;4.40;99.90
8633;DHT22;4354;49.832;10.746;2023-02-02T13:35:16;4.40;99.90
8633;DHT22;4354;49.832;10.746;2023-02-02T13:37:54;4.30;99.90
8633;DHT22;4354;49.832;10.746;2023-02-02T13:40:37;4.20;99.90
8633;DHT22;4354;49.832;10.746;2023-02-02T13:59:52;3.90;99.90
8633;DHT22;4354;49.832;10.746;2023-02-02T14:02:45;3.80;99.90
8633;DHT22;4354;49.832;10.746;2023-02-02T14:11:36;3.80;99.90
8633;DHT22;4354;49.832;10.746;2023-02-02T14:13:40;3.70;99.90
8633;DHT22;4354;49.832;10.746;2023-02-02T14:19:03;3.60;99.90
8633;DHT22;4354;49.832;10.746;2023-02-02T14:29:57;3.50;99.90
8633;DHT22;4354;49.832;10.746;2023-02-02T14:38:10;3.50;99.90
8633;DHT22;4354;49.832;10.746;2023-02-02T14:43:31;3.60;99.90
8633;DHT22;4354;49.832;10.746;2023-02-02T14:51:24;3.60;99.90
8633;DHT22;4354;49.832;10.746;2023-02-02T14:56:37;3.60;99.90
8633;DHT22;4354;49.832;10.746;2023-02-02T14:59:11;3.60;99.90
8633;DHT22;4354;49.832;10.746;2023-02-02T15:01:43;3.60;99.90
8633;DHT22;4354;49.832;10.746;2023-02-02T15:04:23;3.60;99.90
8633;DHT22;4354;49.832;10.746;2023-02-02T15:06:51;3.60;99.90
8633;DHT22;4354;49.832;10.746;2023-02-02T15:17:23;3.60;99.90
8633;DHT22;4354;49.832;10.746;2023-02-02T15:22:35;3.50;99.90
8633;DHT22;4354;49.832;10.746;2023-02-02T15:25:11;3.50;99.90
8633;DHT22;4354;49.832;10.746;2023-02-02T15:27:44;3.50;99.90
8633;DHT22;4354;49.832;10.746;2023-02-02T15:30:23;3.50;99.90
8633;DHT22;4354;49.832;10.746;2023-02-02T15:32:52;3.50;99.90
8633;DHT22;4354;49.832;10.746;2023-02-02T15:35:25;3.50;99.90
8633;DHT22;4354;49.832;10.746;2023-02-02T15:37:59;3.50;99.90
8633;DHT22;4354;49.832;10.746;2023-02-02T15:40:28;3.50;99.90
8633;DHT22;4354;49.832;10.746;2023-02-02T15:43:01;3.50;99.90
8633;DHT22;4354;49.832;10.746;2023-02-02T15:45:34;3.50;99.90
8633;DHT22;4354;49.832;10.746;2023-02-02T15:50:49;3.50;99.90
8633;DHT22;4354;49.832;10.746;2023-02-02T15:56:39;3.50;99.90
8633;DHT22;4354;49.832;10.746;2023-02-02T15:59:22;3.50;99.90
8633;DHT22;4354;49.832;10.746;2023-02-02T16:04:26;3.40;99.90
8633;DHT22;4354;49.832;10.746;2023-02-02T16:06:55;3.40;99.90
8633;DHT22;4354;49.832;10.746;2023-02-02T16:09:26;3.30;99.90
8633;DHT22;4354;49.832;10.746;2023-02-02T16:11:55;3.30;99.90
8633;DHT22;4354;49.832;10.746;2023-02-02T16:14:22;3.30;99.90
8633;DHT22;4354;49.832;10.746;2023-02-02T16:16:49;3.30;99.90
8633;DHT22;4354;49.832;10.746;2023-02-02T16:21:55;3.30;99.90
8633;DHT22;4354;49.832;10.746;2023-02-02T16:24:36;3.30;99.90
8633;DHT22;4354;49.832;10.746;2023-02-02T16:27:06;3.30;99.90
8633;DHT22;4354;49.832;10.746;2023-02-02T16:29:34;3.30;99.90
8633;DHT22;4354;49.832;10.746;2023-02-02T16:32:01;3.30;99.90
8633;DHT22;4354;49.832;10.746;2023-02-02T16:37:13;3.20;99.90
8633;DHT22;4354;49.832;10.746;2023-02-02T16:39:40;3.20;99.90
8633;DHT22;4354;49.832;10.746;2023-02-02T16:42:28;3.20;99.90
8633;DHT22;4354;49.832;10.746;2023-02-02T16:44:56;3.20;99.90
8633;DHT22;4354;49.832;10.746;2023-02-02T16:49:56;3.30;99.90
8633;DHT22;4354;49.832;10.746;2023-02-02T16:52:56;3.30;99.90
8633;DHT22;4354;49.832;10.746;2023-02-02T16:55:25;3.30;99.90
8633;DHT22;4354;49.832;10.746;2023-02-02T16:58:17;3.20;99.90
8633;DHT22;4354;49.832;10.746;2023-02-02T17:03:53;3.20;99.90
8633;DHT22;4354;49.832;10.746;2023-02-02T17:06:29;3.20;99.90
8633;DHT22;4354;49.832;10.746;2023-02-02T17:09:30;3.20;99.90
8633;DHT22;4354;49.832;10.746;2023-02-02T17:12:23;3.20;99.90
8633;DHT22;4354;49.832;10.746;2023-02-02T17:17:46;3.20;99.90
8633;DHT22;4354;49.832;10.746;2023-02-02T17:20:17;3.20;99.90
8633;DHT22;4354;49.832;10.746;2023-02-02T17:22:57;3.20;99.90
8633;DHT22;4354;49.832;10.746;2023-02-02T17:25:28;3.20;99.90
8633;DHT22;4354;49.832;10.746;2023-02-02T17:27:58;3.20;99.90
8633;DHT22;4354;49.832;10.746;2023-02-02T17:30:26;3.20;99.90
8633;DHT22;4354;49.832;10.746;2023-02-02T17:32:53;3.20;99.90
8633;DHT22;4354;49.832;10.746;2023-02-02T17:35:26;3.20;99.90
8633;DHT22;4354;49.832;10.746;2023-02-02T17:38:00;3.20;99.90
8633;DHT22;4354;49.832;10.746;2023-02-02T17:40:27;3.20;99.90
8633;DHT22;4354;49.832;10.746;2023-02-02T17:42:54;3.20;99.90
8633;DHT22;4354;49.832;10.746;2023-02-02T17:45:22;3.10;99.90
8633;DHT22;4354;49.832;10.746;2023-02-02T17:47:50;3.20;99.90
8633;DHT22;4354;49.832;10.746;2023-02-02T17:50:17;3.10;99.90
8633;DHT22;4354;49.832;10.746;2023-02-02T17:52:44;3.10;99.90
8633;DHT22;4354;49.832;10.746;2023-02-02T17:55:23;3.10;99.90
8633;DHT22;4354;49.832;10.746;2023-02-02T17:57:51;3.10;99.90
8633;DHT22;4354;49.832;10.746;2023-02-02T18:00:21;3.10;99.90
8633;DHT22;4354;49.832;10.746;2023-02-02T18:02:50;3.10;99.90
8633;DHT22;4354;49.832;10.746;2023-02-02T18:05:22;3.10;99.90
8633;DHT22;4354;49.832;10.746;2023-02-02T18:07:49;3.10;99.90
8633;DHT22;4354;49.832;10.746;2023-02-02T18:10:16;3.10;99.90
8633;DHT22;4354;49.832;10.746;2023-02-02T18:12:44;3.10;99.90
8633;DHT22;4354;49.832;10.746;2023-02-02T18:15:12;3.20;99.90
8633;DHT22;4354;49.832;10.746;2023-02-02T18:17:40;3.20;99.90
8633;DHT22;4354;49.832;10.746;2023-02-02T18:20:09;3.10;99.90
8633;DHT22;4354;49.832;10.746;2023-02-02T18:22:38;3.20;99.90
8633;DHT22;4354;49.832;10.746;2023-02-02T18:25:05;3.20;99.90
8633;DHT22;4354;49.832;10.746;2023-02-02T18:27:32;3.20;99.90
8633;DHT22;4354;49.832;10.746;2023-02-02T18:29:59;3.20;99.90
8633;DHT22;4354;49.832;10.746;2023-02-02T18:32:25;3.20;99.90
8633;DHT22;4354;49.832;10.746;2023-02-02T18:34:52;3.20;99.90
8633;DHT22;4354;49.832;10.746;2023-02-02T18:37:22;3.20;99.90
8633;DHT22;4354;49.832;10.746;2023-02-02T18:39:49;3.20;99.90
8633;DHT22;4354;49.832;10.746;2023-02-02T18:42:17;3.20;99.90
8633;DHT22;4354;49.832;10.746;2023-02-02T18:44:44;3.20;99.90
8633;DHT22;4354;49.832;10.746;2023-02-02T18:47:10;3.20;99.90
8633;DHT22;4354;49.832;10.746;2023-02-02T18:49:37;3.20;99.90
8633;DHT22;4354;49.832;10.746;2023-02-02T18:52:04;3.20;99.90
8633;DHT22;4354;49.832;10.746;2023-02-02T18:54:31;3.20;99.90
8633;DHT22;4354;49.832;10.746;2023-02-02T18:56:59;3.20;99.90
8633;DHT22;4354;49.832;10.746;2023-02-02T18:59:26;3.20;99.90
8633;DHT22;4354;49.832;10.746;2023-02-02T19:01:54;3.20;99.90
8633;DHT22;4354;49.832;10.746;2023-02-02T19:04:21;3.20;99.90
8633;DHT22;4354;49.832;10.746;2023-02-02T19:06:48;3.20;99.90
8633;DHT22;4354;49.832;10.746;2023-02-02T19:09:33;3.20;99.90
8633;DHT22;4354;49.832;10.746;2023-02-02T19:12:00;3.20;99.90
8633;DHT22;4354;49.832;10.746;2023-02-02T19:14:31;3.20;99.90